Time;durP1;ratioP1;P1;durP2;ratioP2;P2;SDS_P1;SDS_P2;PMS_P1;PMS_P2;Temp;Humidity;BMP_temperature;BMP_pressure;BME280_temperature;BME280_humidity;BME280_pressure;Samples;Min_cycle;Max_cycle;Signal;HPM_P1;HPM_P2
2023/12/13 00:02:06;;;;;;;;;;;;;;;21.33;26.64;97754.47;5032510;28;917;-73
2023/12/13 00:04:32;;;;;;;;;;;;;;;21.46;26.40;97765.06;5032682;28;1053;-73
2023/12/13 00:06:58;;;;;;;;;;;;;;;21.77;26.12;97768.16;5016369;28;937;-73
2023/12/13 00:09:23;;;;;;;;;;;;;;;21.82;26.13;97765.56;5032474;28;1139;-73
2023/12/13 00:11:49;;;;;;;;;;;;;;;21.88;25.74;97767.81;5032455;28;1910;-73
2023/12/13 00:14:14;;;;;;;;;;;;;;;21.77;26.09;97771.78;5032609;28;989;-73
2023/12/13 00:16:40;;;;;;;;;;;;;;;21.96;25.72;97763.50;5032628;28;955;-73
2023/12/13 00:19:06;;;;;;;;;;;;;;;21.85;26.00;97766.66;5032313;28;966;-73
2023/12/13 00:21:31;;;;;;;;;;;;;;;21.83;25.83;97750.13;5032647;28;984;-73
2023/12/13 00:23:57;;;;;;;;;;;;;;;21.80;25.83;97767.22;5016286;28;1232;-73
2023/12/13 00:26:23;;;;;;;;;;;;;;;21.75;26.00;97760.09;5017207;28;933;-73
2023/12/13 00:28:49;;;;;;;;;;;;;;;22.01;25.74;97754.44;5015792;28;1009;-73
2023/12/13 00:31:14;;;;;;;;;;;;;;;21.92;25.94;97740.97;5015167;28;1883;-73
2023/12/13 00:33:40;;;;;;;;;;;;;;;22.07;25.42;97747.75;5031836;28;1594;-72
2023/12/13 00:36:06;;;;;;;;;;;;;;;22.11;25.58;97747.66;5015801;28;1134;-73
2023/12/13 00:38:32;;;;;;;;;;;;;;;22.01;25.60;97741.06;5015744;28;1190;-73
2023/12/13 00:40:57;;;;;;;;;;;;;;;22.04;25.76;97745.81;5016893;28;965;-73
2023/12/13 00:43:23;;;;;;;;;;;;;;;21.97;25.85;97743.25;5015630;28;1232;-73
2023/12/13 00:45:48;;;;;;;;;;;;;;;21.83;26.09;97744.47;5015571;28;1253;-73
2023/12/13 00:48:14;;;;;;;;;;;;;;;21.70;26.06;97751.38;5032035;28;966;-73
2023/12/13 00:50:40;;;;;;;;;;;;;;;21.41;26.18;97740.94;5014118;28;1910;-73
2023/12/13 00:53:05;;;;;;;;;;;;;;;21.70;26.08;97740.81;4975303;28;1250;-72
2023/12/13 00:55:31;;;;;;;;;;;;;;;21.95;25.76;97719.44;4959072;28;973;-73
2023/12/13 00:57:57;;;;;;;;;;;;;;;21.94;26.02;97720.69;4959141;28;1019;-73
2023/12/13 01:00:22;;;;;;;;;;;;;;;21.98;25.62;97727.03;4959244;28;1037;-73
2023/12/13 01:02:48;;;;;;;;;;;;;;;22.07;25.55;97724.28;4959238;28;979;-73
2023/12/13 01:05:13;;;;;;;;;;;;;;;22.05;25.67;97715.44;4975342;28;912;-73
2023/12/13 01:07:39;;;;;;;;;;;;;;;21.82;25.81;97708.13;4975332;28;1022;-73
2023/12/13 01:10:05;;;;;;;;;;;;;;;21.81;25.77;97713.00;4958785;28;971;-73
2023/12/13 01:12:30;;;;;;;;;;;;;;;21.94;25.51;97715.00;4943010;28;1264;-73
2023/12/13 01:14:56;;;;;;;;;;;;;;;21.75;25.93;97714.00;4959114;28;995;-74
2023/12/13 01:17:21;;;;;;;;;;;;;;;21.45;26.33;97712.50;4958829;28;1433;-74
2023/12/13 01:19:47;;;;;;;;;;;;;;;21.63;26.41;97712.75;4975236;28;990;-73
2023/12/13 01:22:12;;;;;;;;;;;;;;;21.94;25.99;97709.34;4959006;28;960;-73
2023/12/13 01:24:38;;;;;;;;;;;;;;;21.96;25.71;97704.81;4958750;28;1020;-73
2023/12/13 01:27:05;;;;;;;;;;;;;;;21.87;25.38;97664.28;4974836;28;1218;-74
2023/12/13 01:29:30;;;;;;;;;;;;;;;21.79;25.94;97700.50;4978325;28;971;-73
2023/12/13 01:31:56;;;;;;;;;;;;;;;22.00;25.62;97694.16;5031034;28;1985;-73
2023/12/13 01:34:21;;;;;;;;;;;;;;;21.87;25.79;97692.59;5027893;28;1375;-73
2023/12/13 01:36:47;;;;;;;;;;;;;;;21.95;25.79;97685.44;5035674;28;977;-74
2023/12/13 01:39:13;;;;;;;;;;;;;;;21.72;25.90;97698.72;4985788;28;1271;-73
2023/12/13 01:41:40;;;;;;;;;;;;;;;21.55;26.52;97697.22;5018450;28;843;-73
2023/12/13 01:44:06;;;;;;;;;;;;;;;22.02;25.80;97682.34;5004700;28;997;-73
2023/12/13 01:46:31;;;;;;;;;;;;;;;22.03;25.69;97689.63;5039550;28;908;-73
2023/12/13 01:48:57;;;;;;;;;;;;;;;21.89;25.74;97678.75;5005932;28;1115;-73
2023/12/13 01:51:22;;;;;;;;;;;;;;;21.94;25.67;97686.69;5038580;28;1898;-73
2023/12/13 01:53:48;;;;;;;;;;;;;;;21.72;26.23;97681.72;5039756;28;944;-73
2023/12/13 01:56:13;;;;;;;;;;;;;;;21.61;25.94;97681.28;5022182;28;993;-73
2023/12/13 01:58:39;;;;;;;;;;;;;;;21.44;26.27;97683.41;5005677;28;955;-73
2023/12/13 02:01:08;;;;;;;;;;;;;;;21.01;26.17;97582.84;5021811;28;1013;-73
2023/12/13 02:03:36;;;;;;;;;;;;;;;21.79;25.95;97681.47;4990372;28;1172;-73
2023/12/13 02:06:02;;;;;;;;;;;;;;;21.91;26.01;97681.91;5001182;28;1072;-72
2023/12/13 02:08:28;;;;;;;;;;;;;;;21.92;26.03;97672.19;5001079;28;1100;-73
2023/12/13 02:10:54;;;;;;;;;;;;;;;22.04;25.82;97679.88;4984884;28;1906;-72
2023/12/13 02:13:19;;;;;;;;;;;;;;;21.89;25.69;97667.44;5001151;28;988;-73
2023/12/13 02:15:45;;;;;;;;;;;;;;;21.34;26.73;97659.03;5017383;28;964;-73
2023/12/13 02:18:10;;;;;;;;;;;;;;;21.26;26.72;97655.63;5000714;28;1059;-73
2023/12/13 02:20:36;;;;;;;;;;;;;;;21.76;26.29;97645.59;5000900;28;976;-73
2023/12/13 02:23:02;;;;;;;;;;;;;;;21.94;25.87;97638.53;5017345;28;974;-73
2023/12/13 02:25:35;;;;;;;;;;;;;;;21.82;25.82;97640.94;5000860;28;1220;-73
2023/12/13 02:28:01;;;;;;;;;;;;;;;21.96;25.83;97627.53;5000811;28;987;-73
2023/12/13 02:30:27;;;;;;;;;;;;;;;21.84;26.04;97632.75;4977570;28;1898;-73
2023/12/13 02:32:52;;;;;;;;;;;;;;;21.90;26.05;97643.53;4994047;28;1160;-73
2023/12/13 02:35:18;;;;;;;;;;;;;;;21.87;25.71;97648.06;4994166;28;1217;-73
2023/12/13 02:37:45;;;;;;;;;;;;;;;22.04;25.90;97651.53;4992811;28;1404;-73
2023/12/13 02:40:13;;;;;;;;;;;;;;;21.93;25.79;97648.28;5013502;28;1133;-72
2023/12/13 02:42:38;;;;;;;;;;;;;;;21.77;25.79;97649.22;4996877;28;1098;-73
2023/12/13 02:45:04;;;;;;;;;;;;;;;21.59;26.42;97663.94;5013518;28;977;-73
2023/12/13 02:47:30;;;;;;;;;;;;;;;21.63;26.31;97661.78;5013429;28;948;-73
2023/12/13 02:49:56;;;;;;;;;;;;;;;21.79;26.30;97660.88;5013432;28;1082;-72
2023/12/13 02:52:21;;;;;;;;;;;;;;;21.98;25.78;97667.53;4996751;28;1982;-74
2023/12/13 02:54:47;;;;;;;;;;;;;;;21.81;25.84;97673.34;5012410;28;982;-73
2023/12/13 02:57:12;;;;;;;;;;;;;;;21.72;25.99;97675.28;5013069;28;940;-73
2023/12/13 02:59:38;;;;;;;;;;;;;;;21.68;25.94;97672.53;4996998;28;1039;-74
2023/12/13 03:02:03;;;;;;;;;;;;;;;21.75;25.97;97668.69;5028800;28;1052;-73
2023/12/13 03:04:29;;;;;;;;;;;;;;;21.94;26.05;97669.69;5020657;28;858;-73
2023/12/13 03:06:54;;;;;;;;;;;;;;;21.99;25.63;97677.63;5020777;28;1239;-73
2023/12/13 03:09:20;;;;;;;;;;;;;;;21.99;25.76;97671.94;5020354;28;1014;-73
2023/12/13 03:11:45;;;;;;;;;;;;;;;21.89;25.97;97679.56;5020575;28;1902;-73
2023/12/13 03:14:11;;;;;;;;;;;;;;;21.79;25.96;97675.03;5037224;28;1235;-73
2023/12/13 03:16:37;;;;;;;;;;;;;;;21.62;26.31;97671.53;5038171;28;1077;-73
2023/12/13 03:19:02;;;;;;;;;;;;;;;21.74;25.97;97678.44;5020814;28;1012;-73
2023/12/13 03:21:28;;;;;;;;;;;;;;;21.57;26.44;97672.09;5020555;28;875;-73
2023/12/13 03:23:54;;;;;;;;;;;;;;;21.75;26.30;97668.69;5020511;28;987;-74
2023/12/13 03:26:19;;;;;;;;;;;;;;;21.66;26.22;97671.41;5037646;28;929;-73
2023/12/13 03:28:45;;;;;;;;;;;;;;;21.70;26.10;97678.53;5019345;28;968;-73
2023/12/13 03:31:10;;;;;;;;;;;;;;;21.84;26.03;97666.75;5020277;28;1911;-73
2023/12/13 03:33:36;;;;;;;;;;;;;;;21.92;25.77;97667.31;5019362;28;1102;-73
2023/12/13 03:36:01;;;;;;;;;;;;;;;21.78;25.79;97671.41;5020230;28;1108;-73
2023/12/13 03:38:27;;;;;;;;;;;;;;;21.69;26.27;97668.47;5019233;28;945;-73
2023/12/13 03:40:52;;;;;;;;;;;;;;;21.51;26.57;97671.09;5020030;28;1360;-73
2023/12/13 03:43:18;;;;;;;;;;;;;;;22.00;25.57;97667.88;5019755;28;919;-73
2023/12/13 03:45:43;;;;;;;;;;;;;;;21.93;25.65;97673.78;5003843;28;1452;-73
2023/12/13 03:48:09;;;;;;;;;;;;;;;21.97;25.69;97668.78;5002638;28;1068;-73
2023/12/13 03:50:34;;;;;;;;;;;;;;;21.83;26.02;97672.88;5003639;28;1969;-73
2023/12/13 03:53:00;;;;;;;;;;;;;;;22.02;25.94;97671.84;5002623;28;1076;-73
2023/12/13 03:55:25;;;;;;;;;;;;;;;22.21;25.55;97678.50;5003327;28;948;-73
2023/12/13 03:57:50;;;;;;;;;;;;;;;21.70;26.27;97675.69;5037470;28;930;-73
2023/12/13 04:00:16;;;;;;;;;;;;;;;21.54;26.04;97675.81;5003396;28;1199;-73
2023/12/13 04:02:42;;;;;;;;;;;;;;;21.81;26.13;97675.34;5019641;28;990;-73
2023/12/13 04:05:08;;;;;;;;;;;;;;;21.81;26.23;97669.69;5019614;28;1448;-73
2023/12/13 04:07:33;;;;;;;;;;;;;;;22.00;25.81;97673.53;5003121;28;873;-73
2023/12/13 04:09:59;;;;;;;;;;;;;;;21.94;26.05;97664.81;5037135;28;1036;-73
2023/12/13 04:12:24;;;;;;;;;;;;;;;21.96;26.05;97664.34;5037095;28;1906;-73
2023/12/13 04:14:50;;;;;;;;;;;;;;;21.72;26.37;97663.94;5019689;28;910;-73
2023/12/13 04:17:15;;;;;;;;;;;;;;;21.60;26.23;97674.00;5019454;28;883;-73
2023/12/13 04:19:41;;;;;;;;;;;;;;;21.64;26.42;97671.84;5019084;28;850;-73
2023/12/13 04:22:06;;;;;;;;;;;;;;;21.62;26.33;97671.53;4975717;28;1192;-73
2023/12/13 04:24:32;;;;;;;;;;;;;;;21.54;26.46;97675.81;4975657;28;977;-73
2023/12/13 04:26:57;;;;;;;;;;;;;;;21.91;26.02;97676.25;4959770;28;1006;-74
2023/12/13 04:29:23;;;;;;;;;;;;;;;21.88;25.91;97677.19;4959686;28;1293;-73
2023/12/13 04:31:49;;;;;;;;;;;;;;;21.92;25.94;97677.88;4975480;28;2056;-73
2023/12/13 04:34:15;;;;;;;;;;;;;;;22.00;25.87;97679.19;4959767;28;1881;-73
2023/12/13 04:36:40;;;;;;;;;;;;;;;21.94;26.12;97683.84;4975559;28;953;-74
2023/12/13 04:39:06;;;;;;;;;;;;;;;21.84;26.13;97689.41;4959387;28;936;-73
2023/12/13 04:41:32;;;;;;;;;;;;;;;21.79;26.03;97692.81;4959611;28;1252;-73
2023/12/13 04:43:58;;;;;;;;;;;;;;;21.75;25.90;97692.13;4978493;28;1279;-73
2023/12/13 04:46:23;;;;;;;;;;;;;;;21.72;26.05;97693.06;4978951;28;1042;-73
2023/12/13 04:48:49;;;;;;;;;;;;;;;21.69;26.17;97705.28;4978736;28;1085;-73
2023/12/13 04:51:14;;;;;;;;;;;;;;;22.06;25.89;97700.81;4978465;28;1910;-73
2023/12/13 04:53:40;;;;;;;;;;;;;;;21.75;26.40;97697.00;5023889;28;980;-73
2023/12/13 04:56:05;;;;;;;;;;;;;;;22.15;25.79;97703.00;5017538;28;988;-73
2023/12/13 04:58:31;;;;;;;;;;;;;;;21.85;25.74;97696.66;5017428;28;881;-74
2023/12/13 05:00:56;;;;;;;;;;;;;;;21.56;26.53;97701.66;4994608;28;971;-73
2023/12/13 05:03:22;;;;;;;;;;;;;;;21.40;26.88;97701.72;4978220;28;1224;-73
2023/12/13 05:05:47;;;;;;;;;;;;;;;21.66;26.49;97686.38;4994393;28;1070;-73
2023/12/13 05:08:13;;;;;;;;;;;;;;;22.01;26.13;97686.44;4978261;28;1228;-73
2023/12/13 05:10:41;;;;;;;;;;;;;;;21.89;26.11;97690.09;4994214;28;1915;-73
2023/12/13 05:13:07;;;;;;;;;;;;;;;21.98;25.81;97681.69;4978964;28;1140;-73
2023/12/13 05:15:33;;;;;;;;;;;;;;;21.76;26.24;97688.06;4994624;28;1038;-73
2023/12/13 05:17:58;;;;;;;;;;;;;;;22.02;25.84;97685.19;4994210;28;1094;-73
2023/12/13 05:20:24;;;;;;;;;;;;;;;21.67;26.27;97693.63;4994533;28;1028;-73
2023/12/13 05:22:49;;;;;;;;;;;;;;;21.65;26.43;97698.91;4994525;28;1067;-73
2023/12/13 05:25:15;;;;;;;;;;;;;;;21.96;25.92;97689.84;4994080;28;838;-73
2023/12/13 05:27:42;;;;;;;;;;;;;;;21.99;26.16;97697.44;4991040;28;1060;-73
2023/12/13 05:30:08;;;;;;;;;;;;;;;21.93;25.90;97697.22;4943159;28;973;-74
2023/12/13 05:32:33;;;;;;;;;;;;;;;21.88;26.12;97699.84;4974890;28;1926;-73
2023/12/13 05:34:59;;;;;;;;;;;;;;;21.97;26.04;97691.44;4974689;28;1093;-73
2023/12/13 05:37:24;;;;;;;;;;;;;;;21.64;26.15;97699.38;4979066;28;1240;-73
2023/12/13 05:39:50;;;;;;;;;;;;;;;21.71;26.21;97697.13;4997441;28;727;-73
2023/12/13 05:42:16;;;;;;;;;;;;;;;21.75;26.44;97697.78;4997403;28;1252;-73
2023/12/13 05:44:41;;;;;;;;;;;;;;;21.76;26.35;97693.72;5030016;28;859;-73
2023/12/13 05:47:07;;;;;;;;;;;;;;;21.96;26.25;97695.50;5013423;28;973;-73
2023/12/13 05:49:32;;;;;;;;;;;;;;;21.98;25.89;97681.69;4997466;28;1081;-73
2023/12/13 05:51:58;;;;;;;;;;;;;;;21.80;26.16;97694.38;4997458;28;1902;-73
2023/12/13 05:54:23;;;;;;;;;;;;;;;21.53;26.57;97696.88;5013569;28;970;-73
2023/12/13 05:56:49;;;;;;;;;;;;;;;21.21;27.04;97692.97;4997172;28;879;-73
2023/12/13 05:59:14;;;;;;;;;;;;;;;21.46;26.88;97692.25;5013891;28;874;-73
2023/12/13 06:01:40;;;;;;;;;;;;;;;22.01;26.00;97692.09;5014031;28;998;-73
2023/12/13 06:04:05;;;;;;;;;;;;;;;22.04;25.82;97688.38;5013590;28;704;-73
2023/12/13 06:06:31;;;;;;;;;;;;;;;22.04;26.12;97685.53;5013484;28;778;-73
2023/12/13 06:08:56;;;;;;;;;;;;;;;21.76;26.13;97684.41;4997131;28;782;-73
2023/12/13 06:11:22;;;;;;;;;;;;;;;21.59;26.27;97684.53;4997064;28;1914;-73
2023/12/13 06:13:47;;;;;;;;;;;;;;;21.62;26.73;97694.19;5013622;28;948;-73
2023/12/13 06:16:13;;;;;;;;;;;;;;;21.74;26.36;97701.88;4997448;28;838;-73
2023/12/13 06:18:39;;;;;;;;;;;;;;;21.88;26.13;97702.69;5029651;28;770;-73
2023/12/13 06:21:08;;;;;;;;;;;;;;;21.88;25.96;97705.50;5017823;28;1207;-73
2023/12/13 06:23:33;;;;;;;;;;;;;;;22.09;25.73;97693.47;4993745;28;1223;-73
2023/12/13 06:25:59;;;;;;;;;;;;;;;22.02;26.03;97700.16;4994055;28;1231;-73
2023/12/13 06:28:25;;;;;;;;;;;;;;;21.68;26.15;97697.22;4977618;28;1106;-73
2023/12/13 06:30:50;;;;;;;;;;;;;;;21.68;26.47;97698.03;4995871;28;1903;-73
2023/12/13 06:33:18;;;;;;;;;;;;;;;21.44;26.66;97699.59;4997372;28;1038;-73
2023/12/13 06:35:44;;;;;;;;;;;;;;;21.76;26.42;97699.41;4997423;28;834;-74
2023/12/13 06:38:09;;;;;;;;;;;;;;;22.00;26.10;97684.84;4997008;28;805;-73
2023/12/13 06:40:35;;;;;;;;;;;;;;;21.98;26.10;97681.69;4997089;28;767;-73
2023/12/13 06:43:00;;;;;;;;;;;;;;;22.05;25.76;97670.13;4997265;28;816;-73
2023/12/13 06:45:26;;;;;;;;;;;;;;;21.81;26.37;97667.69;4980661;28;772;-73
2023/12/13 06:47:51;;;;;;;;;;;;;;;21.76;26.30;97668.25;4996957;28;775;-73
2023/12/13 06:50:17;;;;;;;;;;;;;;;21.56;26.57;97653.53;4997065;28;952;-73
2023/12/13 06:52:43;;;;;;;;;;;;;;;21.61;26.43;97652.19;4996776;28;1987;-73
2023/12/13 06:55:09;;;;;;;;;;;;;;;21.61;26.59;97655.78;5027540;28;1364;-73
2023/12/13 06:57:35;;;;;;;;;;;;;;;21.83;26.15;97642.50;5021481;28;715;-73
2023/12/13 07:00:02;;;;;;;;;;;;;;;21.84;26.48;97631.97;5020727;28;807;-73
2023/12/13 07:02:27;;;;;;;;;;;;;;;21.89;26.18;97633.44;5004388;28;815;-73
2023/12/13 07:04:53;;;;;;;;;;;;;;;21.89;26.15;97647.59;5038059;28;755;-73
2023/12/13 07:07:18;;;;;;;;;;;;;;;21.98;26.05;97653.38;5037138;28;1092;-73
2023/12/13 07:09:44;;;;;;;;;;;;;;;21.76;26.37;97673.09;5020927;28;766;-74
2023/12/13 07:12:10;;;;;;;;;;;;;;;21.70;26.44;97681.38;5020393;28;1910;-73
2023/12/13 07:14:35;;;;;;;;;;;;;;;21.58;26.83;97690.66;5020147;28;814;-73
2023/12/13 07:17:01;;;;;;;;;;;;;;;21.83;26.14;97692.69;5020630;28;828;-73
2023/12/13 07:19:27;;;;;;;;;;;;;;;22.03;26.02;97675.47;5004080;28;732;-73
2023/12/13 07:21:52;;;;;;;;;;;;;;;21.85;26.30;97657.00;4980010;28;1111;-73
2023/12/13 07:24:18;;;;;;;;;;;;;;;21.99;25.90;97643.63;4996427;28;982;-73
2023/12/13 07:26:43;;;;;;;;;;;;;;;21.67;26.58;97645.47;4996170;28;1021;-73
2023/12/13 07:29:09;;;;;;;;;;;;;;;21.66;26.62;97638.25;4996502;28;676;-73
2023/12/13 07:31:41;;;;;;;;;;;;;;;21.42;26.96;97646.28;4977190;28;1907;-73
2023/12/13 07:34:08;;;;;;;;;;;;;;;21.92;26.06;97653.16;4960814;28;1142;-73
2023/12/13 07:36:34;;;;;;;;;;;;;;;21.71;26.50;97653.84;4960471;28;1124;-73
2023/12/13 07:39:00;;;;;;;;;;;;;;;22.00;25.92;97645.19;4976757;28;802;-74
2023/12/13 07:41:25;;;;;;;;;;;;;;;21.93;26.20;97651.13;4960116;28;814;-73
2023/12/13 07:43:52;;;;;;;;;;;;;;;21.93;26.12;97656.78;4976469;28;1004;-74
2023/12/13 07:46:17;;;;;;;;;;;;;;;22.19;25.99;97651.88;4960721;28;949;-73
2023/12/13 07:48:43;;;;;;;;;;;;;;;21.07;27.13;97654.56;4960584;28;795;-73
2023/12/13 07:51:09;;;;;;;;;;;;;;;21.62;26.33;97643.22;4976286;28;1910;-73
2023/12/13 07:53:34;;;;;;;;;;;;;;;21.62;26.46;97648.88;4991227;28;796;-73
2023/12/13 07:56:00;;;;;;;;;;;;;;;21.50;26.94;97641.97;4976566;28;904;-73
2023/12/13 07:58:25;;;;;;;;;;;;;;;21.79;26.29;97641.03;4960016;28;884;-73
2023/12/13 08:00:51;;;;;;;;;;;;;;;21.78;26.10;97640.25;4976180;28;787;-73
2023/12/13 08:03:16;;;;;;;;;;;;;;;22.13;26.06;97625.38;4976237;28;1113;-74
2023/12/13 08:05:42;;;;;;;;;;;;;;;22.11;25.87;97640.00;4976288;28;1299;-73
2023/12/13 08:08:08;;;;;;;;;;;;;;;22.05;26.10;97630.47;4960075;28;1224;-73
2023/12/13 08:10:34;;;;;;;;;;;;;;;21.71;26.25;97640.50;4959903;28;1957;-73
2023/12/13 08:12:59;;;;;;;;;;;;;;;21.34;27.06;97639.25;4976327;28;1085;-73
2023/12/13 08:15:25;;;;;;;;;;;;;;;21.35;26.93;97640.84;4976320;28;900;-73
2023/12/13 08:17:50;;;;;;;;;;;;;;;21.63;26.81;97627.03;4976145;28;847;-73
2023/12/13 08:20:16;;;;;;;;;;;;;;;22.01;26.24;97624.13;4976111;28;903;-72
2023/12/13 08:22:41;;;;;;;;;;;;;;;21.85;26.08;97628.69;4959729;28;1078;-73
2023/12/13 08:25:09;;;;;;;;;;;;;;;21.77;26.28;97615.22;4959805;28;1282;-73
2023/12/13 08:27:34;;;;;;;;;;;;;;;21.72;26.53;97630.75;5003325;28;1039;-73
2023/12/13 08:30:00;;;;;;;;;;;;;;;22.02;26.02;97651.19;5017836;28;940;-73
2023/12/13 08:32:25;;;;;;;;;;;;;;;21.92;26.12;97633.34;5034436;28;1985;-73
2023/12/13 08:34:51;;;;;;;;;;;;;;;21.73;26.25;97640.81;5001679;28;1238;-73
2023/12/13 08:37:17;;;;;;;;;;;;;;;21.53;26.61;97640.28;5034665;28;937;-73
2023/12/13 08:39:42;;;;;;;;;;;;;;;21.68;26.73;97624.41;4985450;28;1175;-73
2023/12/13 08:42:09;;;;;;;;;;;;;;;21.77;26.53;97627.34;5018095;28;868;-73
2023/12/13 08:44:34;;;;;;;;;;;;;;;21.90;26.06;97618.03;5001767;28;1233;-73
2023/12/13 08:47:00;;;;;;;;;;;;;;;21.85;26.34;97608.84;5001580;28;1107;-73
2023/12/13 08:49:26;;;;;;;;;;;;;;;21.45;26.56;97604.94;5017658;28;929;-73
2023/12/13 08:51:51;;;;;;;;;;;;;;;21.49;26.58;97616.94;5017763;28;1906;-73
2023/12/13 08:54:17;;;;;;;;;;;;;;;21.55;26.93;97615.94;5033357;28;813;-73
2023/12/13 08:56:42;;;;;;;;;;;;;;;21.72;26.59;97605.25;5001326;28;835;-73
2023/12/13 08:59:08;;;;;;;;;;;;;;;21.92;26.47;97592.88;5018397;28;849;-74
2023/12/13 09:01:33;;;;;;;;;;;;;;;21.87;26.32;97584.97;5035994;28;870;-74
2023/12/13 09:03:59;;;;;;;;;;;;;;;22.06;26.15;97587.50;5036591;28;727;-73
2023/12/13 09:06:25;;;;;;;;;;;;;;;21.68;26.36;97583.97;5036192;28;826;-73
2023/12/13 09:08:51;;;;;;;;;;;;;;;21.72;26.58;97557.13;5018563;28;723;-73
2023/12/13 09:11:16;;;;;;;;;;;;;;;21.47;26.87;97563.63;5018271;28;1902;-73
2023/12/13 09:13:43;;;;;;;;;;;;;;;21.79;26.58;97562.53;5018307;28;1200;-73
2023/12/13 09:16:09;;;;;;;;;;;;;;;21.89;26.08;97557.75;5018458;28;897;-73
2023/12/13 09:18:34;;;;;;;;;;;;;;;21.90;26.45;97578.38;5035300;28;1294;-73
2023/12/13 09:21:00;;;;;;;;;;;;;;;21.93;26.01;97588.78;5036584;28;794;-73
2023/12/13 09:23:25;;;;;;;;;;;;;;;21.84;26.36;97593.09;5036012;28;1000;-73
2023/12/13 09:25:51;;;;;;;;;;;;;;;21.66;26.42;97604.25;5002266;28;1080;-73
2023/12/13 09:28:17;;;;;;;;;;;;;;;21.46;26.66;97592.38;5018860;28;774;-73
2023/12/13 09:30:42;;;;;;;;;;;;;;;21.24;27.08;97595.88;5018497;28;1922;-73
2023/12/13 09:33:11;;;;;;;;;;;;;;;21.69;26.52;97592.00;5018883;28;1081;-73
2023/12/13 09:35:36;;;;;;;;;;;;;;;21.83;26.57;97594.38;5002733;28;1303;-73
2023/12/13 09:38:04;;;;;;;;;;;;;;;21.75;26.39;97590.19;5035896;28;747;-72
2023/12/13 09:40:30;;;;;;;;;;;;;;;22.05;26.06;97579.47;5018882;28;1484;-73
2023/12/13 09:42:56;;;;;;;;;;;;;;;22.01;26.31;97568.25;5035928;28;763;-73
2023/12/13 09:45:21;;;;;;;;;;;;;;;21.76;26.25;97574.78;5001817;28;779;-73
2023/12/13 09:47:51;;;;;;;;;;;;;;;21.78;26.49;97566.63;5018454;28;783;-73
2023/12/13 09:50:17;;;;;;;;;;;;;;;21.68;26.74;97555.66;5018749;28;680;-73
2023/12/13 09:52:42;;;;;;;;;;;;;;;21.97;26.21;97555.47;5018485;28;1981;-73
2023/12/13 09:55:08;;;;;;;;;;;;;;;21.94;26.46;97539.38;5002073;28;744;-73
2023/12/13 09:57:33;;;;;;;;;;;;;;;21.85;26.52;97525.94;5018328;28;831;-73
2023/12/13 09:59:59;;;;;;;;;;;;;;;21.87;26.29;97517.00;5018327;28;1030;-73
2023/12/13 10:02:26;;;;;;;;;;;;;;;21.92;26.48;97508.69;5034737;28;1229;-73
2023/12/13 10:04:51;;;;;;;;;;;;;;;22.00;26.14;97497.88;5020695;28;790;-73
2023/12/13 10:07:17;;;;;;;;;;;;;;;21.76;26.40;97483.34;5022495;28;743;-73
2023/12/13 10:09:43;;;;;;;;;;;;;;;21.64;26.35;97476.50;5022207;28;826;-73
2023/12/13 10:12:08;;;;;;;;;;;;;;;21.63;26.76;97474.91;5022107;28;1946;-73
2023/12/13 10:14:34;;;;;;;;;;;;;;;21.83;26.62;97486.75;5005990;28;797;-73
2023/12/13 10:17:00;;;;;;;;;;;;;;;21.82;26.38;97482.34;4989437;28;1092;-73
2023/12/13 10:19:25;;;;;;;;;;;;;;;21.93;26.18;97469.84;5028713;28;1445;-73
2023/12/13 10:21:51;;;;;;;;;;;;;;;21.81;26.24;97457.28;5039340;28;795;-73
2023/12/13 10:24:16;;;;;;;;;;;;;;;21.84;26.21;97464.88;5021883;28;815;-73
2023/12/13 10:26:42;;;;;;;;;;;;;;;21.67;26.39;97469.13;5039169;28;810;-73
2023/12/13 10:29:07;;;;;;;;;;;;;;;21.82;26.35;97471.00;5038217;28;750;-73
2023/12/13 10:31:33;;;;;;;;;;;;;;;22.01;26.18;97473.97;5039484;28;1906;-73
2023/12/13 10:33:59;;;;;;;;;;;;;;;21.83;26.28;97461.25;5038112;28;1049;-73
2023/12/13 10:36:25;;;;;;;;;;;;;;;21.95;26.22;97462.44;5021667;28;767;-73
2023/12/13 10:38:52;;;;;;;;;;;;;;;21.68;26.54;97454.53;5021245;28;795;-73
2023/12/13 10:41:18;;;;;;;;;;;;;;;22.10;26.28;97460.69;5021683;28;1143;-73
2023/12/13 10:43:43;;;;;;;;;;;;;;;21.43;26.76;97449.72;5039102;28;723;-73
2023/12/13 10:46:09;;;;;;;;;;;;;;;21.42;27.05;97453.03;5021216;28;1507;-74
2023/12/13 10:48:35;;;;;;;;;;;;;;;21.22;27.22;97448.38;5021476;28;783;-73
2023/12/13 10:51:02;;;;;;;;;;;;;;;21.82;26.65;97442.69;5021298;28;1910;-73
2023/12/13 10:53:29;;;;;;;;;;;;;;;21.97;26.15;97437.28;5037589;28;815;-73
2023/12/13 10:55:54;;;;;;;;;;;;;;;22.03;26.06;97440.31;5037776;28;712;-73
2023/12/13 10:58:20;;;;;;;;;;;;;;;21.83;26.55;97438.59;5037753;28;795;-73
2023/12/13 11:00:45;;;;;;;;;;;;;;;21.99;26.04;97434.78;5021378;28;724;-73
2023/12/13 11:03:37;;;;;;;;;;;;;;;21.74;26.33;97427.19;5037859;28;814;-73
2023/12/13 11:06:06;;;;;;;;;;;;;;;21.24;27.22;97426.09;4996825;28;983;-73
2023/12/13 11:08:38;;;;;;;;;;;;;;;21.65;26.76;97421.44;4980831;28;1046;-73
2023/12/13 11:11:07;;;;;;;;;;;;;;;21.95;26.25;97416.34;4980338;28;1895;-73
2023/12/13 11:13:37;;;;;;;;;;;;;;;21.68;26.82;97409.22;4980752;28;888;-73
2023/12/13 11:16:12;;;;;;;;;;;;;;;21.75;26.56;97406.13;4980102;28;869;-74
2023/12/13 11:18:37;;;;;;;;;;;;;;;22.03;26.10;97412.00;4942085;29;905;-73
2023/12/13 11:21:03;;;;;;;;;;;;;;;21.28;27.12;97406.94;4957965;29;867;-73
2023/12/13 11:23:29;;;;;;;;;;;;;;;21.66;26.52;97406.06;4977041;28;897;-73
2023/12/13 11:25:54;;;;;;;;;;;;;;;21.66;26.69;97394.75;4974395;28;753;-73
2023/12/13 11:28:21;;;;;;;;;;;;;;;21.23;27.18;97390.56;4977192;28;831;-73
2023/12/13 11:30:47;;;;;;;;;;;;;;;21.90;26.40;97375.22;4922363;29;1970;-73
2023/12/13 11:33:12;;;;;;;;;;;;;;;21.84;26.71;97383.53;4906780;29;1150;-73
2023/12/13 11:35:38;;;;;;;;;;;;;;;21.99;26.34;97383.00;4903307;29;981;-73
2023/12/13 11:38:03;;;;;;;;;;;;;;;22.00;26.21;97384.56;4919382;29;917;-73
2023/12/13 11:40:29;;;;;;;;;;;;;;;21.96;26.28;97379.03;4919338;29;1023;-73
2023/12/13 11:42:54;;;;;;;;;;;;;;;21.76;26.59;97385.06;4903550;29;958;-73
2023/12/13 11:45:20;;;;;;;;;;;;;;;21.78;26.59;97384.59;4919388;29;1536;-73
2023/12/13 11:47:46;;;;;;;;;;;;;;;21.84;26.49;97375.03;4903660;29;1065;-73
2023/12/13 11:50:13;;;;;;;;;;;;;;;21.93;26.34;97370.69;4920626;29;1126;-73
2023/12/13 11:52:38;;;;;;;;;;;;;;;21.93;26.27;97362.19;4957393;29;1910;-73
2023/12/13 11:55:05;;;;;;;;;;;;;;;21.72;26.61;97358.91;4957192;29;780;-73
2023/12/13 11:57:32;;;;;;;;;;;;;;;22.05;26.25;97347.16;4941406;29;764;-74
2023/12/13 11:59:57;;;;;;;;;;;;;;;21.89;26.24;97351.00;4941366;29;744;-73
2023/12/13 12:02:23;;;;;;;;;;;;;;;21.85;26.13;97356.00;4925264;29;902;-74
2023/12/13 12:04:48;;;;;;;;;;;;;;;21.66;26.62;97352.28;4956811;29;739;-73
2023/12/13 12:07:14;;;;;;;;;;;;;;;21.85;26.77;97351.13;4962261;28;1206;-73
2023/12/13 12:09:40;;;;;;;;;;;;;;;21.93;26.59;97333.88;5015461;28;1001;-73
2023/12/13 12:12:06;;;;;;;;;;;;;;;22.06;26.19;97340.22;4998984;28;1914;-73
2023/12/13 12:14:31;;;;;;;;;;;;;;;21.96;26.33;97328.03;4999294;28;894;-73
2023/12/13 12:16:59;;;;;;;;;;;;;;;21.64;26.61;97334.16;5015494;28;783;-73
2023/12/13 12:19:25;;;;;;;;;;;;;;;21.59;27.08;97324.22;4983053;28;1179;-73
2023/12/13 12:21:51;;;;;;;;;;;;;;;21.56;26.67;97330.81;4975866;28;973;-73
2023/12/13 12:24:16;;;;;;;;;;;;;;;21.64;27.17;97329.28;4960465;28;1105;-73
2023/12/13 12:26:42;;;;;;;;;;;;;;;21.84;26.73;97307.06;4975802;28;963;-72
2023/12/13 12:29:07;;;;;;;;;;;;;;;21.84;26.61;97303.44;4959467;28;800;-73
2023/12/13 12:31:33;;;;;;;;;;;;;;;21.87;26.67;97302.53;4959602;28;1989;-73
2023/12/13 12:33:58;;;;;;;;;;;;;;;22.07;26.13;97304.97;4959475;28;1166;-73
2023/12/13 12:36:24;;;;;;;;;;;;;;;21.84;26.47;97315.56;4959759;28;815;-73
2023/12/13 12:38:50;;;;;;;;;;;;;;;21.59;27.09;97304.38;4959652;28;1212;-73
2023/12/13 12:41:15;;;;;;;;;;;;;;;21.32;27.11;97305.00;4990350;28;1152;-73
2023/12/13 12:43:41;;;;;;;;;;;;;;;21.62;27.14;97303.47;4995128;28;783;-73
2023/12/13 12:46:07;;;;;;;;;;;;;;;21.71;26.77;97297.06;4995189;28;791;-73
2023/12/13 12:48:33;;;;;;;;;;;;;;;21.90;26.77;97312.91;4994996;28;854;-73
2023/12/13 12:50:58;;;;;;;;;;;;;;;21.78;26.69;97316.63;4994715;28;1914;-74
2023/12/13 12:53:24;;;;;;;;;;;;;;;22.21;26.13;97301.59;5011252;28;1009;-73
2023/12/13 12:55:49;;;;;;;;;;;;;;;21.66;26.77;97303.31;5015766;28;933;-73